Portada
METAR-TAF:

METAR-TAF

Aeroports :

Vladivostok, Rússia

latitud: 43-07N, longitud: 131-56E, altitud: 184 m

Observació

L'informe es va fer fa 22 minuts, a les 07:30 UTC
Vent 12 kt del Nord
Temperatura 0°C
Humitat 34%
Pressió 1025 hPa
Visibilitat 10 km o més

METAR: UHWW 260730Z 36006MPS 9999 NSC 00/M14 Q1025 R07R/0///70 NOSIG RMK QFE768

Hora: 17:52 (07:52 UTC)

Pronòstic

L'informe es va fer fa 2 hores i 52 minuts, a les 05:00 UTC
Pronòstic vàlid del 26 a les 06 UTC al 27 a les 06 UTC
Vent 6 kt del Nord
Visibilitat 10 km o més
Temporalment
l' 26 a les 06 UTC al 26 a les 12 UTC
Vent 19 kt del Nord
Núvols disperses a una alçada de 3000 ft

TAF: UHWW 260500Z 2606/2706 35003MPS 9999 NSC TEMPO 2606/2612 36010MPS SCT030

Observacions i pronòstics meteorològics de més de 4000 aeroports (METAR i TAF).

Les estacions disponibles són els punts grocs i vermells al mapa.

Posi el ratolí al punt desitjat per veure el nom de l'estació.

Feu clic per veure les observacions i els pronòstics meteorològics.

Per canviar el mapa: feu clic els botons verds amb una creu de color negre per apropar; al botó verd amb un guió per allunyar la imatge; o en les fletxes verdes per a mapes adjacents.


METAR-TAF: